sensor_id;sensor_type;location;lat;lon;timestamp;P1;durP1;ratioP1;P2;durP2;ratioP2
24143;SDS011;12307;50.828;6.080;2022-11-15T00:00:55;2.50;;;2.30;;
24143;SDS011;12307;50.828;6.080;2022-11-15T00:03:22;3.13;;;2.28;;
24143;SDS011;12307;50.828;6.080;2022-11-15T00:05:50;2.75;;;2.30;;
24143;SDS011;12307;50.828;6.080;2022-11-15T00:08:16;2.97;;;2.33;;
24143;SDS011;12307;50.828;6.080;2022-11-15T00:10:41;3.20;;;2.30;;
24143;SDS011;12307;50.828;6.080;2022-11-15T00:13:08;2.38;;;2.17;;
24143;SDS011;12307;50.828;6.080;2022-11-15T00:15:35;3.35;;;2.30;;
24143;SDS011;12307;50.828;6.080;2022-11-15T00:18:01;4.07;;;2.58;;
24143;SDS011;12307;50.828;6.080;2022-11-15T00:20:27;2.72;;;2.15;;
24143;SDS011;12307;50.828;6.080;2022-11-15T00:22:54;2.70;;;2.30;;
24143;SDS011;12307;50.828;6.080;2022-11-15T00:25:19;3.08;;;2.60;;
24143;SDS011;12307;50.828;6.080;2022-11-15T00:27:45;2.78;;;2.47;;
24143;SDS011;12307;50.828;6.080;2022-11-15T00:30:11;3.20;;;2.53;;
24143;SDS011;12307;50.828;6.080;2022-11-15T00:32:37;4.00;;;2.58;;
24143;SDS011;12307;50.828;6.080;2022-11-15T00:35:03;3.13;;;2.10;;
24143;SDS011;12307;50.828;6.080;2022-11-15T00:37:29;2.97;;;2.50;;
24143;SDS011;12307;50.828;6.080;2022-11-15T00:39:56;2.42;;;2.17;;
24143;SDS011;12307;50.828;6.080;2022-11-15T00:42:22;2.65;;;2.13;;
24143;SDS011;12307;50.828;6.080;2022-11-15T00:44:47;2.72;;;2.47;;
24143;SDS011;12307;50.828;6.080;2022-11-15T00:47:13;3.20;;;2.47;;
24143;SDS011;12307;50.828;6.080;2022-11-15T00:49:39;2.97;;;2.40;;
24143;SDS011;12307;50.828;6.080;2022-11-15T00:52:05;3.17;;;2.53;;
24143;SDS011;12307;50.828;6.080;2022-11-15T00:54:31;3.40;;;2.50;;
24143;SDS011;12307;50.828;6.080;2022-11-15T00:56:58;3.05;;;2.42;;
24143;SDS011;12307;50.828;6.080;2022-11-15T00:59:24;3.28;;;2.70;;
24143;SDS011;12307;50.828;6.080;2022-11-15T01:01:49;2.90;;;2.40;;
24143;SDS011;12307;50.828;6.080;2022-11-15T01:04:15;3.38;;;2.40;;
24143;SDS011;12307;50.828;6.080;2022-11-15T01:06:41;3.42;;;2.25;;
24143;SDS011;12307;50.828;6.080;2022-11-15T01:09:06;2.70;;;2.42;;
24143;SDS011;12307;50.828;6.080;2022-11-15T01:11:32;2.60;;;2.35;;
24143;SDS011;12307;50.828;6.080;2022-11-15T01:13:59;3.75;;;2.72;;
24143;SDS011;12307;50.828;6.080;2022-11-15T01:16:24;2.40;;;2.20;;
24143;SDS011;12307;50.828;6.080;2022-11-15T01:18:50;3.55;;;2.60;;
24143;SDS011;12307;50.828;6.080;2022-11-15T01:21:16;3.05;;;2.55;;
24143;SDS011;12307;50.828;6.080;2022-11-15T01:23:43;2.65;;;2.25;;
24143;SDS011;12307;50.828;6.080;2022-11-15T01:26:10;2.97;;;2.25;;
24143;SDS011;12307;50.828;6.080;2022-11-15T01:28:37;4.10;;;2.70;;
24143;SDS011;12307;50.828;6.080;2022-11-15T01:31:06;3.03;;;2.60;;
24143;SDS011;12307;50.828;6.080;2022-11-15T01:33:36;3.08;;;2.53;;
24143;SDS011;12307;50.828;6.080;2022-11-15T01:36:03;2.80;;;2.45;;
24143;SDS011;12307;50.828;6.080;2022-11-15T01:38:30;2.50;;;2.30;;
24143;SDS011;12307;50.828;6.080;2022-11-15T01:40:55;3.63;;;2.30;;
24143;SDS011;12307;50.828;6.080;2022-11-15T01:43:22;2.78;;;2.25;;
24143;SDS011;12307;50.828;6.080;2022-11-15T01:45:49;3.42;;;2.50;;
24143;SDS011;12307;50.828;6.080;2022-11-15T01:48:20;2.85;;;2.50;;
24143;SDS011;12307;50.828;6.080;2022-11-15T01:50:46;3.25;;;2.55;;
24143;SDS011;12307;50.828;6.080;2022-11-15T01:53:13;3.47;;;2.30;;
24143;SDS011;12307;50.828;6.080;2022-11-15T01:55:39;2.95;;;2.50;;
24143;SDS011;12307;50.828;6.080;2022-11-15T01:58:06;3.20;;;2.55;;
24143;SDS011;12307;50.828;6.080;2022-11-15T02:00:32;3.17;;;2.60;;
24143;SDS011;12307;50.828;6.080;2022-11-15T02:02:58;3.40;;;2.70;;
24143;SDS011;12307;50.828;6.080;2022-11-15T02:05:25;3.25;;;2.70;;
24143;SDS011;12307;50.828;6.080;2022-11-15T02:07:51;2.75;;;2.33;;
24143;SDS011;12307;50.828;6.080;2022-11-15T02:10:18;3.47;;;2.30;;
24143;SDS011;12307;50.828;6.080;2022-11-15T02:12:45;3.30;;;2.42;;
24143;SDS011;12307;50.828;6.080;2022-11-15T02:15:11;2.67;;;2.33;;
24143;SDS011;12307;50.828;6.080;2022-11-15T02:17:42;3.00;;;2.30;;
24143;SDS011;12307;50.828;6.080;2022-11-15T02:20:30;2.83;;;2.38;;
24143;SDS011;12307;50.828;6.080;2022-11-15T02:23:13;2.60;;;2.30;;
24143;SDS011;12307;50.828;6.080;2022-11-15T02:26:24;2.88;;;2.50;;
24143;SDS011;12307;50.828;6.080;2022-11-15T02:29:12;2.70;;;2.45;;
24143;SDS011;12307;50.828;6.080;2022-11-15T02:31:46;2.53;;;2.30;;
24143;SDS011;12307;50.828;6.080;2022-11-15T02:34:21;2.35;;;2.10;;
24143;SDS011;12307;50.828;6.080;2022-11-15T02:36:55;2.80;;;2.50;;
24143;SDS011;12307;50.828;6.080;2022-11-15T02:39:30;2.47;;;2.28;;
24143;SDS011;12307;50.828;6.080;2022-11-15T02:42:02;3.55;;;2.40;;
24143;SDS011;12307;50.828;6.080;2022-11-15T02:44:51;2.88;;;2.58;;
24143;SDS011;12307;50.828;6.080;2022-11-15T02:47:22;2.90;;;2.33;;
24143;SDS011;12307;50.828;6.080;2022-11-15T02:49:50;2.58;;;2.35;;
24143;SDS011;12307;50.828;6.080;2022-11-15T02:52:19;3.22;;;2.20;;
24143;SDS011;12307;50.828;6.080;2022-11-15T02:54:52;2.95;;;2.40;;
24143;SDS011;12307;50.828;6.080;2022-11-15T02:57:19;3.13;;;2.20;;
24143;SDS011;12307;50.828;6.080;2022-11-15T03:00:01;2.72;;;2.30;;
24143;SDS011;12307;50.828;6.080;2022-11-15T03:02:35;2.58;;;2.05;;
24143;SDS011;12307;50.828;6.080;2022-11-15T03:05:14;3.70;;;2.20;;
24143;SDS011;12307;50.828;6.080;2022-11-15T03:07:50;4.28;;;2.40;;
24143;SDS011;12307;50.828;6.080;2022-11-15T03:10:20;3.03;;;2.40;;
24143;SDS011;12307;50.828;6.080;2022-11-15T03:12:51;3.15;;;2.38;;
24143;SDS011;12307;50.828;6.080;2022-11-15T03:15:21;3.00;;;2.40;;
24143;SDS011;12307;50.828;6.080;2022-11-15T03:17:55;3.28;;;2.25;;
24143;SDS011;12307;50.828;6.080;2022-11-15T03:20:25;3.88;;;2.30;;
24143;SDS011;12307;50.828;6.080;2022-11-15T03:22:52;2.53;;;2.10;;
24143;SDS011;12307;50.828;6.080;2022-11-15T03:25:22;2.60;;;2.40;;
24143;SDS011;12307;50.828;6.080;2022-11-15T03:27:52;2.28;;;2.08;;
24143;SDS011;12307;50.828;6.080;2022-11-15T03:30:19;2.83;;;2.50;;
24143;SDS011;12307;50.828;6.080;2022-11-15T03:32:46;2.97;;;2.30;;
24143;SDS011;12307;50.828;6.080;2022-11-15T03:35:17;2.72;;;2.40;;
24143;SDS011;12307;50.828;6.080;2022-11-15T03:37:45;3.25;;;2.22;;
24143;SDS011;12307;50.828;6.080;2022-11-15T03:40:19;2.95;;;2.50;;
24143;SDS011;12307;50.828;6.080;2022-11-15T03:42:52;2.42;;;2.22;;
24143;SDS011;12307;50.828;6.080;2022-11-15T03:45:26;2.67;;;2.13;;
24143;SDS011;12307;50.828;6.080;2022-11-15T03:47:57;2.55;;;2.30;;
24143;SDS011;12307;50.828;6.080;2022-11-15T03:50:27;3.08;;;2.30;;
24143;SDS011;12307;50.828;6.080;2022-11-15T03:52:54;3.60;;;2.60;;
24143;SDS011;12307;50.828;6.080;2022-11-15T03:55:21;3.30;;;2.35;;
24143;SDS011;12307;50.828;6.080;2022-11-15T03:57:48;2.58;;;2.15;;
24143;SDS011;12307;50.828;6.080;2022-11-15T04:00:18;3.30;;;2.40;;
24143;SDS011;12307;50.828;6.080;2022-11-15T04:02:44;2.47;;;2.22;;
24143;SDS011;12307;50.828;6.080;2022-11-15T04:05:10;2.60;;;2.15;;
24143;SDS011;12307;50.828;6.080;2022-11-15T04:07:37;2.70;;;2.40;;
24143;SDS011;12307;50.828;6.080;2022-11-15T04:10:03;2.88;;;2.30;;
24143;SDS011;12307;50.828;6.080;2022-11-15T04:12:30;2.28;;;2.08;;
24143;SDS011;12307;50.828;6.080;2022-11-15T04:14:58;2.97;;;2.30;;
24143;SDS011;12307;50.828;6.080;2022-11-15T04:17:34;2.50;;;2.30;;
24143;SDS011;12307;50.828;6.080;2022-11-15T04:20:01;2.67;;;2.28;;
24143;SDS011;12307;50.828;6.080;2022-11-15T04:22:47;2.70;;;2.20;;
24143;SDS011;12307;50.828;6.080;2022-11-15T04:25:32;2.97;;;2.42;;
24143;SDS011;12307;50.828;6.080;2022-11-15T04:27:58;2.20;;;2.00;;
24143;SDS011;12307;50.828;6.080;2022-11-15T04:30:24;3.97;;;2.63;;
24143;SDS011;12307;50.828;6.080;2022-11-15T04:32:49;2.33;;;2.00;;
24143;SDS011;12307;50.828;6.080;2022-11-15T04:35:15;2.30;;;2.10;;
24143;SDS011;12307;50.828;6.080;2022-11-15T04:37:41;2.05;;;1.92;;
24143;SDS011;12307;50.828;6.080;2022-11-15T04:40:08;2.25;;;2.05;;
24143;SDS011;12307;50.828;6.080;2022-11-15T04:42:34;2.33;;;2.10;;
24143;SDS011;12307;50.828;6.080;2022-11-15T04:45:00;2.38;;;2.03;;
24143;SDS011;12307;50.828;6.080;2022-11-15T04:47:25;2.38;;;2.10;;
24143;SDS011;12307;50.828;6.080;2022-11-15T04:49:52;3.30;;;2.00;;
24143;SDS011;12307;50.828;6.080;2022-11-15T04:52:18;3.22;;;2.20;;
24143;SDS011;12307;50.828;6.080;2022-11-15T04:54:43;2.30;;;2.10;;
24143;SDS011;12307;50.828;6.080;2022-11-15T04:57:11;1.92;;;1.80;;
24143;SDS011;12307;50.828;6.080;2022-11-15T04:59:36;2.22;;;1.85;;
24143;SDS011;12307;50.828;6.080;2022-11-15T05:02:02;2.47;;;2.00;;
24143;SDS011;12307;50.828;6.080;2022-11-15T05:04:28;2.20;;;2.00;;
24143;SDS011;12307;50.828;6.080;2022-11-15T05:06:53;3.13;;;2.22;;
24143;SDS011;12307;50.828;6.080;2022-11-15T05:09:19;2.22;;;1.95;;
24143;SDS011;12307;50.828;6.080;2022-11-15T05:11:45;4.18;;;2.20;;
24143;SDS011;12307;50.828;6.080;2022-11-15T05:14:13;2.28;;;2.08;;
24143;SDS011;12307;50.828;6.080;2022-11-15T05:16:39;2.90;;;2.00;;
24143;SDS011;12307;50.828;6.080;2022-11-15T05:19:05;2.25;;;2.05;;
24143;SDS011;12307;50.828;6.080;2022-11-15T05:21:31;2.45;;;2.00;;
24143;SDS011;12307;50.828;6.080;2022-11-15T05:23:57;2.30;;;2.00;;
24143;SDS011;12307;50.828;6.080;2022-11-15T05:26:23;2.20;;;1.95;;
24143;SDS011;12307;50.828;6.080;2022-11-15T05:28:51;2.65;;;2.30;;
24143;SDS011;12307;50.828;6.080;2022-11-15T05:31:19;2.40;;;2.20;;
24143;SDS011;12307;50.828;6.080;2022-11-15T05:33:44;2.10;;;1.90;;
24143;SDS011;12307;50.828;6.080;2022-11-15T05:36:12;2.30;;;2.10;;
24143;SDS011;12307;50.828;6.080;2022-11-15T05:38:42;2.22;;;2.03;;
24143;SDS011;12307;50.828;6.080;2022-11-15T05:41:08;2.30;;;2.05;;
24143;SDS011;12307;50.828;6.080;2022-11-15T05:43:35;2.08;;;1.83;;
24143;SDS011;12307;50.828;6.080;2022-11-15T05:46:04;2.40;;;2.20;;
24143;SDS011;12307;50.828;6.080;2022-11-15T05:48:31;2.13;;;1.92;;
24143;SDS011;12307;50.828;6.080;2022-11-15T05:50:57;2.50;;;2.20;;
24143;SDS011;12307;50.828;6.080;2022-11-15T05:53:24;2.10;;;1.90;;
24143;SDS011;12307;50.828;6.080;2022-11-15T05:55:50;2.08;;;1.88;;
24143;SDS011;12307;50.828;6.080;2022-11-15T05:58:16;2.28;;;2.08;;
24143;SDS011;12307;50.828;6.080;2022-11-15T06:00:43;2.35;;;1.90;;
24143;SDS011;12307;50.828;6.080;2022-11-15T06:03:08;2.25;;;2.05;;
24143;SDS011;12307;50.828;6.080;2022-11-15T06:05:35;2.38;;;1.90;;
24143;SDS011;12307;50.828;6.080;2022-11-15T06:08:01;2.38;;;2.17;;
24143;SDS011;12307;50.828;6.080;2022-11-15T06:10:27;2.28;;;2.08;;
24143;SDS011;12307;50.828;6.080;2022-11-15T06:12:56;2.03;;;1.88;;
24143;SDS011;12307;50.828;6.080;2022-11-15T06:15:22;1.95;;;1.80;;
24143;SDS011;12307;50.828;6.080;2022-11-15T06:17:48;2.03;;;1.75;;
24143;SDS011;12307;50.828;6.080;2022-11-15T06:20:13;1.85;;;1.75;;
24143;SDS011;12307;50.828;6.080;2022-11-15T06:22:41;2.15;;;1.95;;
24143;SDS011;12307;50.828;6.080;2022-11-15T06:25:06;2.80;;;2.10;;
24143;SDS011;12307;50.828;6.080;2022-11-15T06:27:32;2.60;;;2.00;;
24143;SDS011;12307;50.828;6.080;2022-11-15T06:29:58;2.10;;;1.90;;
24143;SDS011;12307;50.828;6.080;2022-11-15T06:32:24;2.15;;;1.90;;
24143;SDS011;12307;50.828;6.080;2022-11-15T06:34:49;1.80;;;1.70;;
24143;SDS011;12307;50.828;6.080;2022-11-15T06:37:15;2.10;;;1.90;;
24143;SDS011;12307;50.828;6.080;2022-11-15T06:39:42;1.98;;;1.80;;
24143;SDS011;12307;50.828;6.080;2022-11-15T06:42:08;2.22;;;1.80;;
24143;SDS011;12307;50.828;6.080;2022-11-15T06:44:34;2.13;;;1.92;;
24143;SDS011;12307;50.828;6.080;2022-11-15T06:46:59;2.20;;;1.90;;
24143;SDS011;12307;50.828;6.080;2022-11-15T06:49:25;2.13;;;1.92;;
24143;SDS011;12307;50.828;6.080;2022-11-15T06:51:51;2.13;;;1.70;;
24143;SDS011;12307;50.828;6.080;2022-11-15T06:54:16;1.80;;;1.70;;
24143;SDS011;12307;50.828;6.080;2022-11-15T06:56:43;3.40;;;2.15;;
24143;SDS011;12307;50.828;6.080;2022-11-15T06:59:09;1.92;;;1.73;;
24143;SDS011;12307;50.828;6.080;2022-11-15T07:01:35;2.13;;;1.88;;
24143;SDS011;12307;50.828;6.080;2022-11-15T07:04:00;1.73;;;1.58;;
24143;SDS011;12307;50.828;6.080;2022-11-15T07:06:26;2.25;;;1.70;;
24143;SDS011;12307;50.828;6.080;2022-11-15T07:08:51;2.20;;;2.00;;
24143;SDS011;12307;50.828;6.080;2022-11-15T07:11:17;2.00;;;1.90;;
24143;SDS011;12307;50.828;6.080;2022-11-15T07:13:44;1.80;;;1.70;;
24143;SDS011;12307;50.828;6.080;2022-11-15T07:16:10;1.90;;;1.80;;
24143;SDS011;12307;50.828;6.080;2022-11-15T07:18:36;2.00;;;1.77;;
24143;SDS011;12307;50.828;6.080;2022-11-15T07:21:02;2.20;;;2.00;;
24143;SDS011;12307;50.828;6.080;2022-11-15T07:23:29;1.92;;;1.80;;
24143;SDS011;12307;50.828;6.080;2022-11-15T07:25:55;2.10;;;1.90;;
24143;SDS011;12307;50.828;6.080;2022-11-15T07:28:22;2.10;;;1.88;;
24143;SDS011;12307;50.828;6.080;2022-11-15T07:30:49;1.98;;;1.70;;
24143;SDS011;12307;50.828;6.080;2022-11-15T07:33:14;2.10;;;1.90;;
24143;SDS011;12307;50.828;6.080;2022-11-15T07:35:40;2.10;;;1.90;;
24143;SDS011;12307;50.828;6.080;2022-11-15T07:38:07;1.60;;;1.50;;
24143;SDS011;12307;50.828;6.080;2022-11-15T07:40:33;1.83;;;1.70;;
24143;SDS011;12307;50.828;6.080;2022-11-15T07:42:59;2.00;;;1.80;;
24143;SDS011;12307;50.828;6.080;2022-11-15T07:45:26;1.70;;;1.60;;
24143;SDS011;12307;50.828;6.080;2022-11-15T07:47:53;2.00;;;1.70;;
24143;SDS011;12307;50.828;6.080;2022-11-15T07:50:21;1.65;;;1.55;;
24143;SDS011;12307;50.828;6.080;2022-11-15T07:52:47;2.10;;;1.90;;
24143;SDS011;12307;50.828;6.080;2022-11-15T07:55:17;1.60;;;1.40;;
24143;SDS011;12307;50.828;6.080;2022-11-15T07:57:43;1.70;;;1.60;;
24143;SDS011;12307;50.828;6.080;2022-11-15T08:00:09;1.77;;;1.67;;
24143;SDS011;12307;50.828;6.080;2022-11-15T08:02:36;3.30;;;1.63;;
24143;SDS011;12307;50.828;6.080;2022-11-15T08:05:03;1.85;;;1.60;;
24143;SDS011;12307;50.828;6.080;2022-11-15T08:07:29;2.45;;;2.00;;
24143;SDS011;12307;50.828;6.080;2022-11-15T08:09:55;2.33;;;1.92;;
24143;SDS011;12307;50.828;6.080;2022-11-15T08:12:21;2.08;;;1.88;;
24143;SDS011;12307;50.828;6.080;2022-11-15T08:14:47;2.22;;;1.80;;
24143;SDS011;12307;50.828;6.080;2022-11-15T08:17:13;2.10;;;1.90;;
24143;SDS011;12307;50.828;6.080;2022-11-15T08:19:39;2.70;;;2.10;;
24143;SDS011;12307;50.828;6.080;2022-11-15T08:22:06;2.10;;;1.90;;
24143;SDS011;12307;50.828;6.080;2022-11-15T08:24:32;3.50;;;2.08;;
24143;SDS011;12307;50.828;6.080;2022-11-15T08:26:59;2.22;;;1.85;;
24143;SDS011;12307;50.828;6.080;2022-11-15T08:29:24;2.70;;;1.75;;
24143;SDS011;12307;50.828;6.080;2022-11-15T08:31:50;3.00;;;1.90;;
24143;SDS011;12307;50.828;6.080;2022-11-15T08:34:16;2.72;;;1.98;;
24143;SDS011;12307;50.828;6.080;2022-11-15T08:36:41;1.75;;;1.65;;
24143;SDS011;12307;50.828;6.080;2022-11-15T08:39:11;2.35;;;1.80;;
24143;SDS011;12307;50.828;6.080;2022-11-15T08:41:37;2.10;;;1.70;;
24143;SDS011;12307;50.828;6.080;2022-11-15T08:44:03;2.13;;;1.80;;
24143;SDS011;12307;50.828;6.080;2022-11-15T08:46:29;3.78;;;1.98;;
24143;SDS011;12307;50.828;6.080;2022-11-15T08:48:55;1.88;;;1.73;;
24143;SDS011;12307;50.828;6.080;2022-11-15T08:51:20;2.03;;;1.83;;
24143;SDS011;12307;50.828;6.080;2022-11-15T08:53:46;3.55;;;2.05;;
24143;SDS011;12307;50.828;6.080;2022-11-15T08:56:13;2.45;;;1.80;;
24143;SDS011;12307;50.828;6.080;2022-11-15T08:58:40;2.17;;;1.80;;
24143;SDS011;12307;50.828;6.080;2022-11-15T09:01:05;3.15;;;2.08;;
24143;SDS011;12307;50.828;6.080;2022-11-15T09:03:39;2.75;;;1.65;;
24143;SDS011;12307;50.828;6.080;2022-11-15T09:06:05;2.53;;;1.90;;
24143;SDS011;12307;50.828;6.080;2022-11-15T09:08:31;3.35;;;1.90;;
24143;SDS011;12307;50.828;6.080;2022-11-15T09:10:57;2.15;;;1.80;;
24143;SDS011;12307;50.828;6.080;2022-11-15T09:13:24;3.85;;;1.80;;
24143;SDS011;12307;50.828;6.080;2022-11-15T09:15:50;1.75;;;1.65;;
24143;SDS011;12307;50.828;6.080;2022-11-15T09:18:15;2.55;;;1.77;;
24143;SDS011;12307;50.828;6.080;2022-11-15T09:20:41;1.88;;;1.63;;
24143;SDS011;12307;50.828;6.080;2022-11-15T09:23:06;2.22;;;1.65;;
24143;SDS011;12307;50.828;6.080;2022-11-15T09:25:32;2.50;;;1.85;;
24143;SDS011;12307;50.828;6.080;2022-11-15T09:27:58;2.25;;;1.85;;
24143;SDS011;12307;50.828;6.080;2022-11-15T09:30:25;3.33;;;1.80;;
24143;SDS011;12307;50.828;6.080;2022-11-15T09:32:51;2.30;;;1.75;;
24143;SDS011;12307;50.828;6.080;2022-11-15T09:35:16;1.92;;;1.60;;
24143;SDS011;12307;50.828;6.080;2022-11-15T09:37:42;2.65;;;1.83;;
24143;SDS011;12307;50.828;6.080;2022-11-15T09:40:08;2.22;;;1.77;;
24143;SDS011;12307;50.828;6.080;2022-11-15T09:42:41;2.63;;;1.55;;
24143;SDS011;12307;50.828;6.080;2022-11-15T09:45:18;1.67;;;1.50;;
24143;SDS011;12307;50.828;6.080;2022-11-15T09:48:03;2.38;;;1.63;;
24143;SDS011;12307;50.828;6.080;2022-11-15T09:50:44;2.97;;;1.60;;
24143;SDS011;12307;50.828;6.080;2022-11-15T09:53:13;2.70;;;1.67;;
24143;SDS011;12307;50.828;6.080;2022-11-15T09:55:44;2.65;;;1.80;;
24143;SDS011;12307;50.828;6.080;2022-11-15T09:58:18;3.88;;;1.58;;
24143;SDS011;12307;50.828;6.080;2022-11-15T10:00:50;1.80;;;1.60;;
24143;SDS011;12307;50.828;6.080;2022-11-15T10:03:22;3.28;;;1.48;;
24143;SDS011;12307;50.828;6.080;2022-11-15T10:05:53;3.28;;;1.50;;
24143;SDS011;12307;50.828;6.080;2022-11-15T10:08:33;2.55;;;1.70;;
24143;SDS011;12307;50.828;6.080;2022-11-15T10:11:09;2.63;;;1.77;;
24143;SDS011;12307;50.828;6.080;2022-11-15T10:13:37;3.85;;;1.80;;
24143;SDS011;12307;50.828;6.080;2022-11-15T10:16:12;2.40;;;1.95;;
24143;SDS011;12307;50.828;6.080;2022-11-15T10:18:58;3.20;;;1.95;;
24143;SDS011;12307;50.828;6.080;2022-11-15T10:21:32;5.60;;;1.80;;
24143;SDS011;12307;50.828;6.080;2022-11-15T10:24:08;3.17;;;1.40;;
24143;SDS011;12307;50.828;6.080;2022-11-15T10:26:36;2.35;;;1.50;;
24143;SDS011;12307;50.828;6.080;2022-11-15T10:29:02;3.15;;;1.63;;
24143;SDS011;12307;50.828;6.080;2022-11-15T10:31:28;3.80;;;1.80;;
24143;SDS011;12307;50.828;6.080;2022-11-15T10:33:58;4.22;;;1.73;;
24143;SDS011;12307;50.828;6.080;2022-11-15T10:36:36;2.40;;;1.45;;
24143;SDS011;12307;50.828;6.080;2022-11-15T10:39:01;2.22;;;1.65;;
24143;SDS011;12307;50.828;6.080;2022-11-15T10:41:29;3.22;;;1.50;;
24143;SDS011;12307;50.828;6.080;2022-11-15T10:44:08;2.33;;;1.48;;
24143;SDS011;12307;50.828;6.080;2022-11-15T10:46:46;2.58;;;1.70;;
24143;SDS011;12307;50.828;6.080;2022-11-15T10:49:17;2.83;;;1.65;;
24143;SDS011;12307;50.828;6.080;2022-11-15T10:51:45;2.95;;;1.75;;
24143;SDS011;12307;50.828;6.080;2022-11-15T10:54:13;2.03;;;1.50;;
24143;SDS011;12307;50.828;6.080;2022-11-15T10:56:47;3.22;;;1.88;;
24143;SDS011;12307;50.828;6.080;2022-11-15T10:59:16;3.20;;;1.83;;
24143;SDS011;12307;50.828;6.080;2022-11-15T11:01:48;2.88;;;1.52;;
24143;SDS011;12307;50.828;6.080;2022-11-15T11:04:14;1.80;;;1.42;;
24143;SDS011;12307;50.828;6.080;2022-11-15T11:06:47;3.17;;;1.65;;
24143;SDS011;12307;50.828;6.080;2022-11-15T11:09:21;2.03;;;1.48;;
24143;SDS011;12307;50.828;6.080;2022-11-15T11:11:52;1.95;;;1.67;;
24143;SDS011;12307;50.828;6.080;2022-11-15T11:14:19;4.43;;;1.75;;
24143;SDS011;12307;50.828;6.080;2022-11-15T11:16:48;1.60;;;1.40;;
24143;SDS011;12307;50.828;6.080;2022-11-15T11:19:20;2.00;;;1.55;;
24143;SDS011;12307;50.828;6.080;2022-11-15T11:22:00;2.47;;;1.60;;
24143;SDS011;12307;50.828;6.080;2022-11-15T11:24:32;1.98;;;1.40;;
24143;SDS011;12307;50.828;6.080;2022-11-15T11:27:07;2.13;;;1.40;;
24143;SDS011;12307;50.828;6.080;2022-11-15T11:29:42;3.08;;;1.38;;
24143;SDS011;12307;50.828;6.080;2022-11-15T11:32:21;2.17;;;1.30;;
24143;SDS011;12307;50.828;6.080;2022-11-15T11:34:56;2.20;;;1.60;;
24143;SDS011;12307;50.828;6.080;2022-11-15T11:37:30;1.67;;;1.50;;
24143;SDS011;12307;50.828;6.080;2022-11-15T11:40:07;1.75;;;1.45;;
24143;SDS011;12307;50.828;6.080;2022-11-15T11:42:42;2.97;;;1.65;;
24143;SDS011;12307;50.828;6.080;2022-11-15T11:45:15;3.28;;;1.58;;
24143;SDS011;12307;50.828;6.080;2022-11-15T11:47:46;3.25;;;1.50;;
24143;SDS011;12307;50.828;6.080;2022-11-15T11:50:15;3.83;;;1.23;;
24143;SDS011;12307;50.828;6.080;2022-11-15T11:52:48;2.17;;;1.20;;
24143;SDS011;12307;50.828;6.080;2022-11-15T11:55:22;2.88;;;1.55;;
24143;SDS011;12307;50.828;6.080;2022-11-15T11:57:51;4.75;;;1.50;;
24143;SDS011;12307;50.828;6.080;2022-11-15T12:00:24;2.25;;;1.30;;
24143;SDS011;12307;50.828;6.080;2022-11-15T12:02:57;2.90;;;1.30;;
24143;SDS011;12307;50.828;6.080;2022-11-15T12:05:30;1.75;;;1.42;;
24143;SDS011;12307;50.828;6.080;2022-11-15T12:08:04;3.08;;;1.55;;
24143;SDS011;12307;50.828;6.080;2022-11-15T12:10:44;2.88;;;1.27;;
24143;SDS011;12307;50.828;6.080;2022-11-15T12:13:13;2.78;;;1.30;;
24143;SDS011;12307;50.828;6.080;2022-11-15T12:15:45;2.55;;;1.40;;
24143;SDS011;12307;50.828;6.080;2022-11-15T12:18:15;2.33;;;1.17;;
24143;SDS011;12307;50.828;6.080;2022-11-15T12:20:42;1.45;;;1.20;;
24143;SDS011;12307;50.828;6.080;2022-11-15T12:23:26;2.92;;;1.27;;
24143;SDS011;12307;50.828;6.080;2022-11-15T12:25:55;3.28;;;1.50;;
24143;SDS011;12307;50.828;6.080;2022-11-15T12:28:27;2.40;;;1.30;;
24143;SDS011;12307;50.828;6.080;2022-11-15T12:31:01;1.90;;;1.10;;
24143;SDS011;12307;50.828;6.080;2022-11-15T12:33:32;3.90;;;1.52;;
24143;SDS011;12307;50.828;6.080;2022-11-15T12:36:02;2.65;;;1.10;;
24143;SDS011;12307;50.828;6.080;2022-11-15T12:41:22;4.32;;;1.50;;
24143;SDS011;12307;50.828;6.080;2022-11-15T12:43:50;2.15;;;1.40;;
24143;SDS011;12307;50.828;6.080;2022-11-15T12:46:23;4.93;;;1.50;;
24143;SDS011;12307;50.828;6.080;2022-11-15T12:52:09;3.30;;;1.20;;
24143;SDS011;12307;50.828;6.080;2022-11-15T13:03:23;5.10;;;1.42;;
24143;SDS011;12307;50.828;6.080;2022-11-15T13:05:58;1.92;;;1.20;;
24143;SDS011;12307;50.828;6.080;2022-11-15T13:08:39;3.08;;;1.35;;
24143;SDS011;12307;50.828;6.080;2022-11-15T13:17:10;2.30;;;1.20;;
24143;SDS011;12307;50.828;6.080;2022-11-15T13:20:00;2.65;;;1.02;;
24143;SDS011;12307;50.828;6.080;2022-11-15T13:22:38;3.50;;;1.42;;
24143;SDS011;12307;50.828;6.080;2022-11-15T13:25:18;3.35;;;1.10;;
24143;SDS011;12307;50.828;6.080;2022-11-15T13:27:52;2.55;;;1.30;;
24143;SDS011;12307;50.828;6.080;2022-11-15T13:30:23;2.15;;;1.17;;
24143;SDS011;12307;50.828;6.080;2022-11-15T13:32:50;2.28;;;1.20;;
24143;SDS011;12307;50.828;6.080;2022-11-15T13:35:21;2.17;;;1.10;;
24143;SDS011;12307;50.828;6.080;2022-11-15T13:37:49;4.15;;;1.35;;
24143;SDS011;12307;50.828;6.080;2022-11-15T13:40:18;2.88;;;1.25;;
24143;SDS011;12307;50.828;6.080;2022-11-15T13:42:46;2.75;;;1.35;;
24143;SDS011;12307;50.828;6.080;2022-11-15T13:45:14;2.28;;;1.33;;
24143;SDS011;12307;50.828;6.080;2022-11-15T13:47:41;2.13;;;1.10;;
24143;SDS011;12307;50.828;6.080;2022-11-15T13:50:10;1.38;;;1.00;;
24143;SDS011;12307;50.828;6.080;2022-11-15T13:52:36;2.08;;;1.27;;
24143;SDS011;12307;50.828;6.080;2022-11-15T13:55:09;2.00;;;1.20;;
24143;SDS011;12307;50.828;6.080;2022-11-15T13:57:39;3.10;;;1.35;;
24143;SDS011;12307;50.828;6.080;2022-11-15T14:02:52;3.15;;;1.25;;
24143;SDS011;12307;50.828;6.080;2022-11-15T14:05:19;3.55;;;1.27;;
24143;SDS011;12307;50.828;6.080;2022-11-15T14:07:52;2.20;;;1.40;;
24143;SDS011;12307;50.828;6.080;2022-11-15T14:10:24;3.15;;;1.33;;
24143;SDS011;12307;50.828;6.080;2022-11-15T14:12:52;2.20;;;1.20;;
24143;SDS011;12307;50.828;6.080;2022-11-15T14:15:23;2.70;;;1.40;;
24143;SDS011;12307;50.828;6.080;2022-11-15T14:17:53;2.65;;;1.20;;
24143;SDS011;12307;50.828;6.080;2022-11-15T14:20:20;1.10;;;0.95;;
24143;SDS011;12307;50.828;6.080;2022-11-15T14:22:53;3.72;;;1.83;;
24143;SDS011;12307;50.828;6.080;2022-11-15T14:25:20;2.70;;;1.50;;
24143;SDS011;12307;50.828;6.080;2022-11-15T14:30:40;3.58;;;1.30;;
24143;SDS011;12307;50.828;6.080;2022-11-15T14:33:17;2.60;;;1.20;;
24143;SDS011;12307;50.828;6.080;2022-11-15T14:35:47;2.38;;;1.20;;
24143;SDS011;12307;50.828;6.080;2022-11-15T14:38:14;1.83;;;1.20;;
24143;SDS011;12307;50.828;6.080;2022-11-15T14:40:39;2.50;;;1.30;;
24143;SDS011;12307;50.828;6.080;2022-11-15T14:43:07;4.30;;;1.50;;
24143;SDS011;12307;50.828;6.080;2022-11-15T14:45:34;1.90;;;1.27;;
24143;SDS011;12307;50.828;6.080;2022-11-15T14:48:02;1.63;;;1.42;;
24143;SDS011;12307;50.828;6.080;2022-11-15T14:50:28;2.35;;;1.50;;
24143;SDS011;12307;50.828;6.080;2022-11-15T14:52:53;2.35;;;1.20;;
24143;SDS011;12307;50.828;6.080;2022-11-15T14:55:20;3.35;;;1.38;;
24143;SDS011;12307;50.828;6.080;2022-11-15T14:57:48;2.30;;;1.52;;
24143;SDS011;12307;50.828;6.080;2022-11-15T15:00:14;2.65;;;1.50;;
24143;SDS011;12307;50.828;6.080;2022-11-15T15:02:41;1.70;;;1.20;;
24143;SDS011;12307;50.828;6.080;2022-11-15T15:05:16;1.45;;;1.33;;
24143;SDS011;12307;50.828;6.080;2022-11-15T15:07:44;2.28;;;1.40;;
24143;SDS011;12307;50.828;6.080;2022-11-15T15:10:10;1.83;;;1.38;;
24143;SDS011;12307;50.828;6.080;2022-11-15T15:12:37;1.73;;;1.40;;
24143;SDS011;12307;50.828;6.080;2022-11-15T15:15:03;1.70;;;1.40;;
24143;SDS011;12307;50.828;6.080;2022-11-15T15:17:30;1.75;;;1.35;;
24143;SDS011;12307;50.828;6.080;2022-11-15T15:19:56;2.22;;;1.58;;
24143;SDS011;12307;50.828;6.080;2022-11-15T15:22:23;1.65;;;1.40;;
24143;SDS011;12307;50.828;6.080;2022-11-15T15:24:53;1.80;;;1.40;;